Impacts TAF Board INFO
FOR SITUATIONAL AWARENESS. NOT TO BE USED FOR FLIGHT PLANNING PURPOSES.
IDs:

KMEM - Memphis Intl, TN, US

Issued at 0304 UTC 18 Feb 2018
Updated at 0505 UTC 18 Feb 2018
Potential Impact None Slight Moderate High
Time<<19/06Z 19/07Z 19/08Z 19/09Z 19/10Z 19/11Z 19/12Z 19/13Z 19/14Z 19/15Z 19/16Z 19/17Z 19/18Z
Type
VIS
CIG
Cover
FltCat
WX
WDir
WSpd
WGst

Raw TAF
KMEM 180304Z 1803/1906 02004KT P6SM FEW020 SCT250
  FM180800 06004KT 5SM BR FEW005 SCT250
  FM181300 11007KT P6SM SCT020 BKN250
  FM181600 15009KT P6SM BKN250
  FM182100 16009KT P6SM VCSH BKN025 OVC050
  FM190300 17011KT P6SM VCSH BKN018


METAR Board
Radar Display
Forecast Discussion

FOR SITUATIONAL AWARENESS. NOT TO BE USED FOR FLIGHT PLANNING PURPOSES.